sensor_id;sensor_type;location;lat;lon;timestamp;P1;durP1;ratioP1;P2;durP2;ratioP2
21999;SDS011;11164;48.818;2.322;2023-05-07T00:00:19;4.35;;;2.05;;
21999;SDS011;11164;48.818;2.322;2023-05-07T00:02:45;9.07;;;2.58;;
21999;SDS011;11164;48.818;2.322;2023-05-07T00:05:10;4.63;;;2.20;;
21999;SDS011;11164;48.818;2.322;2023-05-07T00:07:36;5.05;;;2.15;;
21999;SDS011;11164;48.818;2.322;2023-05-07T00:10:02;5.93;;;2.10;;
21999;SDS011;11164;48.818;2.322;2023-05-07T00:12:28;4.85;;;2.17;;
21999;SDS011;11164;48.818;2.322;2023-05-07T00:14:56;4.28;;;2.28;;
21999;SDS011;11164;48.818;2.322;2023-05-07T00:17:22;6.25;;;1.95;;
21999;SDS011;11164;48.818;2.322;2023-05-07T00:19:48;4.88;;;1.92;;
21999;SDS011;11164;48.818;2.322;2023-05-07T00:22:13;5.32;;;2.10;;
21999;SDS011;11164;48.818;2.322;2023-05-07T00:24:38;4.93;;;2.05;;
21999;SDS011;11164;48.818;2.322;2023-05-07T00:27:04;3.88;;;2.03;;
21999;SDS011;11164;48.818;2.322;2023-05-07T00:29:29;4.90;;;2.10;;
21999;SDS011;11164;48.818;2.322;2023-05-07T00:31:54;5.32;;;2.55;;
21999;SDS011;11164;48.818;2.322;2023-05-07T00:34:20;4.07;;;2.00;;
21999;SDS011;11164;48.818;2.322;2023-05-07T00:36:45;5.82;;;2.17;;
21999;SDS011;11164;48.818;2.322;2023-05-07T00:39:10;6.75;;;2.70;;
21999;SDS011;11164;48.818;2.322;2023-05-07T00:41:36;2.65;;;1.45;;
21999;SDS011;11164;48.818;2.322;2023-05-07T00:44:01;4.38;;;2.00;;
21999;SDS011;11164;48.818;2.322;2023-05-07T00:46:27;7.47;;;2.60;;
21999;SDS011;11164;48.818;2.322;2023-05-07T00:48:53;5.10;;;2.08;;
21999;SDS011;11164;48.818;2.322;2023-05-07T00:51:19;3.20;;;1.60;;
21999;SDS011;11164;48.818;2.322;2023-05-07T00:53:45;4.38;;;1.60;;
21999;SDS011;11164;48.818;2.322;2023-05-07T00:56:11;5.40;;;1.80;;
21999;SDS011;11164;48.818;2.322;2023-05-07T00:58:37;4.03;;;1.52;;
21999;SDS011;11164;48.818;2.322;2023-05-07T01:01:02;4.20;;;1.77;;
21999;SDS011;11164;48.818;2.322;2023-05-07T01:03:28;3.60;;;1.50;;
21999;SDS011;11164;48.818;2.322;2023-05-07T01:05:53;4.47;;;1.50;;
21999;SDS011;11164;48.818;2.322;2023-05-07T01:08:20;3.88;;;1.40;;
21999;SDS011;11164;48.818;2.322;2023-05-07T01:10:47;3.92;;;1.35;;
21999;SDS011;11164;48.818;2.322;2023-05-07T01:13:13;3.35;;;1.25;;
21999;SDS011;11164;48.818;2.322;2023-05-07T01:15:39;3.78;;;1.55;;
21999;SDS011;11164;48.818;2.322;2023-05-07T01:18:08;4.40;;;1.60;;
21999;SDS011;11164;48.818;2.322;2023-05-07T01:20:33;3.95;;;1.50;;
21999;SDS011;11164;48.818;2.322;2023-05-07T01:22:59;3.13;;;1.40;;
21999;SDS011;11164;48.818;2.322;2023-05-07T01:25:25;3.28;;;1.48;;
21999;SDS011;11164;48.818;2.322;2023-05-07T01:27:51;5.35;;;2.00;;
21999;SDS011;11164;48.818;2.322;2023-05-07T01:30:16;3.95;;;1.63;;
21999;SDS011;11164;48.818;2.322;2023-05-07T01:33:08;4.78;;;1.67;;
21999;SDS011;11164;48.818;2.322;2023-05-07T01:35:37;3.97;;;1.70;;
21999;SDS011;11164;48.818;2.322;2023-05-07T01:38:06;3.08;;;1.60;;
21999;SDS011;11164;48.818;2.322;2023-05-07T01:40:33;4.28;;;1.90;;
21999;SDS011;11164;48.818;2.322;2023-05-07T01:43:02;3.67;;;1.40;;
21999;SDS011;11164;48.818;2.322;2023-05-07T01:45:28;3.80;;;1.60;;
21999;SDS011;11164;48.818;2.322;2023-05-07T01:47:54;6.10;;;1.80;;
21999;SDS011;11164;48.818;2.322;2023-05-07T01:50:22;4.10;;;1.70;;
21999;SDS011;11164;48.818;2.322;2023-05-07T01:52:50;4.40;;;1.77;;
21999;SDS011;11164;48.818;2.322;2023-05-07T01:55:15;4.07;;;1.55;;
21999;SDS011;11164;48.818;2.322;2023-05-07T01:57:41;5.93;;;1.90;;
21999;SDS011;11164;48.818;2.322;2023-05-07T02:00:06;3.45;;;1.60;;
21999;SDS011;11164;48.818;2.322;2023-05-07T02:02:33;4.47;;;1.98;;
21999;SDS011;11164;48.818;2.322;2023-05-07T02:04:59;3.95;;;1.67;;
21999;SDS011;11164;48.818;2.322;2023-05-07T02:07:25;4.88;;;1.90;;
21999;SDS011;11164;48.818;2.322;2023-05-07T02:09:51;4.18;;;1.80;;
21999;SDS011;11164;48.818;2.322;2023-05-07T02:12:16;5.38;;;1.70;;
21999;SDS011;11164;48.818;2.322;2023-05-07T02:14:41;3.88;;;1.50;;
21999;SDS011;11164;48.818;2.322;2023-05-07T02:17:07;5.47;;;1.77;;
21999;SDS011;11164;48.818;2.322;2023-05-07T02:19:32;4.80;;;1.60;;
21999;SDS011;11164;48.818;2.322;2023-05-07T02:21:58;2.88;;;1.60;;
21999;SDS011;11164;48.818;2.322;2023-05-07T02:24:23;5.93;;;1.70;;
21999;SDS011;11164;48.818;2.322;2023-05-07T02:26:48;4.18;;;2.10;;
21999;SDS011;11164;48.818;2.322;2023-05-07T02:29:14;4.18;;;1.70;;
21999;SDS011;11164;48.818;2.322;2023-05-07T02:31:39;3.70;;;1.70;;
21999;SDS011;11164;48.818;2.322;2023-05-07T02:34:04;3.90;;;1.45;;
21999;SDS011;11164;48.818;2.322;2023-05-07T02:36:30;4.68;;;1.80;;
21999;SDS011;11164;48.818;2.322;2023-05-07T02:38:55;5.10;;;1.70;;
21999;SDS011;11164;48.818;2.322;2023-05-07T02:41:20;4.07;;;2.00;;
21999;SDS011;11164;48.818;2.322;2023-05-07T02:43:46;3.42;;;1.65;;
21999;SDS011;11164;48.818;2.322;2023-05-07T02:46:11;4.65;;;1.85;;
21999;SDS011;11164;48.818;2.322;2023-05-07T02:48:37;4.50;;;1.88;;
21999;SDS011;11164;48.818;2.322;2023-05-07T02:51:02;3.88;;;1.52;;
21999;SDS011;11164;48.818;2.322;2023-05-07T02:53:28;5.43;;;2.10;;
21999;SDS011;11164;48.818;2.322;2023-05-07T02:55:57;3.65;;;1.55;;
21999;SDS011;11164;48.818;2.322;2023-05-07T02:58:24;3.38;;;1.50;;
21999;SDS011;11164;48.818;2.322;2023-05-07T03:00:49;5.43;;;1.30;;
21999;SDS011;11164;48.818;2.322;2023-05-07T03:03:15;4.25;;;1.35;;
21999;SDS011;11164;48.818;2.322;2023-05-07T03:05:40;3.22;;;1.42;;
21999;SDS011;11164;48.818;2.322;2023-05-07T03:08:06;3.38;;;1.40;;
21999;SDS011;11164;48.818;2.322;2023-05-07T03:10:33;2.75;;;1.25;;
21999;SDS011;11164;48.818;2.322;2023-05-07T03:12:58;2.70;;;1.40;;
21999;SDS011;11164;48.818;2.322;2023-05-07T03:15:24;6.07;;;1.40;;
21999;SDS011;11164;48.818;2.322;2023-05-07T03:17:49;5.22;;;1.42;;
21999;SDS011;11164;48.818;2.322;2023-05-07T03:20:14;3.58;;;1.70;;
21999;SDS011;11164;48.818;2.322;2023-05-07T03:22:40;3.25;;;1.48;;
21999;SDS011;11164;48.818;2.322;2023-05-07T03:25:06;3.03;;;1.20;;
21999;SDS011;11164;48.818;2.322;2023-05-07T03:27:32;3.10;;;1.40;;
21999;SDS011;11164;48.818;2.322;2023-05-07T03:29:58;3.88;;;1.27;;
21999;SDS011;11164;48.818;2.322;2023-05-07T03:32:23;3.28;;;1.30;;
21999;SDS011;11164;48.818;2.322;2023-05-07T03:34:48;3.30;;;1.30;;
21999;SDS011;11164;48.818;2.322;2023-05-07T03:37:14;2.88;;;1.33;;
21999;SDS011;11164;48.818;2.322;2023-05-07T03:39:39;3.05;;;1.20;;
21999;SDS011;11164;48.818;2.322;2023-05-07T03:42:05;2.75;;;1.33;;
21999;SDS011;11164;48.818;2.322;2023-05-07T03:44:30;2.58;;;1.00;;
21999;SDS011;11164;48.818;2.322;2023-05-07T03:46:55;2.58;;;1.10;;
21999;SDS011;11164;48.818;2.322;2023-05-07T03:49:21;2.80;;;1.10;;
21999;SDS011;11164;48.818;2.322;2023-05-07T03:51:46;4.03;;;1.40;;
21999;SDS011;11164;48.818;2.322;2023-05-07T03:54:11;2.88;;;1.00;;
21999;SDS011;11164;48.818;2.322;2023-05-07T03:56:37;3.92;;;1.20;;
21999;SDS011;11164;48.818;2.322;2023-05-07T03:59:02;3.05;;;1.13;;
21999;SDS011;11164;48.818;2.322;2023-05-07T04:01:27;4.20;;;1.00;;
21999;SDS011;11164;48.818;2.322;2023-05-07T04:03:53;2.00;;;1.10;;
21999;SDS011;11164;48.818;2.322;2023-05-07T04:06:18;7.65;;;1.65;;
21999;SDS011;11164;48.818;2.322;2023-05-07T04:08:44;3.35;;;1.20;;
21999;SDS011;11164;48.818;2.322;2023-05-07T04:11:09;2.30;;;1.25;;
21999;SDS011;11164;48.818;2.322;2023-05-07T04:13:34;3.30;;;1.30;;
21999;SDS011;11164;48.818;2.322;2023-05-07T04:16:01;3.17;;;1.58;;
21999;SDS011;11164;48.818;2.322;2023-05-07T04:18:27;3.30;;;1.40;;
21999;SDS011;11164;48.818;2.322;2023-05-07T04:20:53;3.63;;;1.70;;
21999;SDS011;11164;48.818;2.322;2023-05-07T04:23:19;4.45;;;1.40;;
21999;SDS011;11164;48.818;2.322;2023-05-07T04:25:44;3.40;;;1.50;;
21999;SDS011;11164;48.818;2.322;2023-05-07T04:28:10;3.83;;;1.50;;
21999;SDS011;11164;48.818;2.322;2023-05-07T04:30:36;3.10;;;1.38;;
21999;SDS011;11164;48.818;2.322;2023-05-07T04:33:01;4.65;;;1.60;;
21999;SDS011;11164;48.818;2.322;2023-05-07T04:35:27;3.20;;;1.40;;
21999;SDS011;11164;48.818;2.322;2023-05-07T04:37:52;3.67;;;1.48;;
21999;SDS011;11164;48.818;2.322;2023-05-07T04:40:17;3.33;;;1.50;;
21999;SDS011;11164;48.818;2.322;2023-05-07T04:42:43;3.03;;;1.55;;
21999;SDS011;11164;48.818;2.322;2023-05-07T04:45:08;3.88;;;1.77;;
21999;SDS011;11164;48.818;2.322;2023-05-07T04:47:35;3.65;;;1.65;;
21999;SDS011;11164;48.818;2.322;2023-05-07T04:50:00;3.03;;;1.42;;
21999;SDS011;11164;48.818;2.322;2023-05-07T04:52:26;3.97;;;1.98;;
21999;SDS011;11164;48.818;2.322;2023-05-07T04:54:51;5.13;;;1.73;;
21999;SDS011;11164;48.818;2.322;2023-05-07T04:57:17;3.00;;;1.40;;
21999;SDS011;11164;48.818;2.322;2023-05-07T04:59:43;3.53;;;1.60;;
21999;SDS011;11164;48.818;2.322;2023-05-07T05:02:09;3.45;;;1.80;;
21999;SDS011;11164;48.818;2.322;2023-05-07T05:04:35;3.28;;;1.70;;
21999;SDS011;11164;48.818;2.322;2023-05-07T05:07:02;3.17;;;1.60;;
21999;SDS011;11164;48.818;2.322;2023-05-07T05:09:28;4.72;;;1.75;;
21999;SDS011;11164;48.818;2.322;2023-05-07T05:11:54;3.53;;;1.77;;
21999;SDS011;11164;48.818;2.322;2023-05-07T05:14:19;3.92;;;1.63;;
21999;SDS011;11164;48.818;2.322;2023-05-07T05:16:45;3.42;;;1.55;;
21999;SDS011;11164;48.818;2.322;2023-05-07T05:19:10;3.67;;;1.73;;
21999;SDS011;11164;48.818;2.322;2023-05-07T05:21:35;3.30;;;1.75;;
21999;SDS011;11164;48.818;2.322;2023-05-07T05:24:00;3.35;;;1.70;;
21999;SDS011;11164;48.818;2.322;2023-05-07T05:26:26;3.25;;;1.80;;
21999;SDS011;11164;48.818;2.322;2023-05-07T05:28:51;3.53;;;1.42;;
21999;SDS011;11164;48.818;2.322;2023-05-07T05:31:16;3.40;;;1.45;;
21999;SDS011;11164;48.818;2.322;2023-05-07T05:33:42;3.67;;;1.73;;
21999;SDS011;11164;48.818;2.322;2023-05-07T05:36:09;3.97;;;1.90;;
21999;SDS011;11164;48.818;2.322;2023-05-07T05:38:35;2.88;;;1.80;;
21999;SDS011;11164;48.818;2.322;2023-05-07T05:41:00;4.13;;;1.95;;
21999;SDS011;11164;48.818;2.322;2023-05-07T05:43:27;3.80;;;1.70;;
21999;SDS011;11164;48.818;2.322;2023-05-07T05:45:52;2.78;;;1.60;;
21999;SDS011;11164;48.818;2.322;2023-05-07T05:48:17;5.60;;;2.38;;
21999;SDS011;11164;48.818;2.322;2023-05-07T05:50:42;4.70;;;1.88;;
21999;SDS011;11164;48.818;2.322;2023-05-07T05:53:08;4.63;;;1.70;;
21999;SDS011;11164;48.818;2.322;2023-05-07T05:55:33;4.60;;;1.65;;
21999;SDS011;11164;48.818;2.322;2023-05-07T05:57:59;3.10;;;1.55;;
21999;SDS011;11164;48.818;2.322;2023-05-07T06:00:25;4.30;;;1.40;;
21999;SDS011;11164;48.818;2.322;2023-05-07T06:02:51;2.88;;;1.48;;
21999;SDS011;11164;48.818;2.322;2023-05-07T06:05:16;3.13;;;1.40;;
21999;SDS011;11164;48.818;2.322;2023-05-07T06:07:42;4.25;;;1.90;;
21999;SDS011;11164;48.818;2.322;2023-05-07T06:10:07;3.15;;;1.60;;
21999;SDS011;11164;48.818;2.322;2023-05-07T06:12:33;6.20;;;1.92;;
21999;SDS011;11164;48.818;2.322;2023-05-07T06:14:58;3.70;;;1.35;;
21999;SDS011;11164;48.818;2.322;2023-05-07T06:17:23;4.97;;;1.50;;
21999;SDS011;11164;48.818;2.322;2023-05-07T06:19:49;2.85;;;1.30;;
21999;SDS011;11164;48.818;2.322;2023-05-07T06:22:14;3.08;;;1.42;;
21999;SDS011;11164;48.818;2.322;2023-05-07T06:24:40;2.83;;;1.30;;
21999;SDS011;11164;48.818;2.322;2023-05-07T06:27:05;4.55;;;1.38;;
21999;SDS011;11164;48.818;2.322;2023-05-07T06:29:30;3.10;;;1.50;;
21999;SDS011;11164;48.818;2.322;2023-05-07T06:32:05;3.20;;;1.40;;
21999;SDS011;11164;48.818;2.322;2023-05-07T06:34:34;3.83;;;2.00;;
21999;SDS011;11164;48.818;2.322;2023-05-07T06:36:59;4.10;;;1.80;;
21999;SDS011;11164;48.818;2.322;2023-05-07T06:39:25;2.70;;;1.33;;
21999;SDS011;11164;48.818;2.322;2023-05-07T06:41:50;2.30;;;1.10;;
21999;SDS011;11164;48.818;2.322;2023-05-07T06:44:15;3.08;;;1.40;;
21999;SDS011;11164;48.818;2.322;2023-05-07T06:46:41;2.90;;;1.38;;
21999;SDS011;11164;48.818;2.322;2023-05-07T06:49:06;3.75;;;1.40;;
21999;SDS011;11164;48.818;2.322;2023-05-07T06:51:32;3.40;;;1.60;;
21999;SDS011;11164;48.818;2.322;2023-05-07T06:53:57;2.50;;;1.27;;
21999;SDS011;11164;48.818;2.322;2023-05-07T06:56:23;4.50;;;1.70;;
21999;SDS011;11164;48.818;2.322;2023-05-07T06:58:48;4.47;;;1.75;;
21999;SDS011;11164;48.818;2.322;2023-05-07T07:01:14;4.60;;;1.80;;
21999;SDS011;11164;48.818;2.322;2023-05-07T07:03:40;3.60;;;1.58;;
21999;SDS011;11164;48.818;2.322;2023-05-07T07:06:05;4.88;;;1.63;;
21999;SDS011;11164;48.818;2.322;2023-05-07T07:08:30;3.33;;;1.58;;
21999;SDS011;11164;48.818;2.322;2023-05-07T07:10:56;5.88;;;1.75;;
21999;SDS011;11164;48.818;2.322;2023-05-07T07:13:21;4.72;;;1.77;;
21999;SDS011;11164;48.818;2.322;2023-05-07T07:15:46;4.40;;;2.00;;
21999;SDS011;11164;48.818;2.322;2023-05-07T07:18:12;4.00;;;2.17;;
21999;SDS011;11164;48.818;2.322;2023-05-07T07:20:37;4.03;;;1.52;;
21999;SDS011;11164;48.818;2.322;2023-05-07T07:23:02;4.28;;;2.08;;
21999;SDS011;11164;48.818;2.322;2023-05-07T07:25:28;5.78;;;2.45;;
21999;SDS011;11164;48.818;2.322;2023-05-07T07:27:53;3.60;;;1.70;;
21999;SDS011;11164;48.818;2.322;2023-05-07T07:30:18;4.28;;;2.10;;
21999;SDS011;11164;48.818;2.322;2023-05-07T07:32:44;3.80;;;1.88;;
21999;SDS011;11164;48.818;2.322;2023-05-07T07:35:09;4.13;;;2.00;;
21999;SDS011;11164;48.818;2.322;2023-05-07T07:37:34;5.57;;;2.10;;
21999;SDS011;11164;48.818;2.322;2023-05-07T07:40:00;4.75;;;2.30;;
21999;SDS011;11164;48.818;2.322;2023-05-07T07:42:28;4.70;;;2.70;;
21999;SDS011;11164;48.818;2.322;2023-05-07T07:44:54;5.50;;;2.95;;
21999;SDS011;11164;48.818;2.322;2023-05-07T07:47:19;4.50;;;2.72;;
21999;SDS011;11164;48.818;2.322;2023-05-07T07:49:45;4.07;;;1.70;;
21999;SDS011;11164;48.818;2.322;2023-05-07T07:52:10;5.25;;;2.22;;
21999;SDS011;11164;48.818;2.322;2023-05-07T07:54:36;4.68;;;1.92;;
21999;SDS011;11164;48.818;2.322;2023-05-07T07:57:02;3.13;;;1.70;;
21999;SDS011;11164;48.818;2.322;2023-05-07T07:59:27;4.45;;;1.90;;
21999;SDS011;11164;48.818;2.322;2023-05-07T08:01:52;3.75;;;1.95;;
21999;SDS011;11164;48.818;2.322;2023-05-07T08:04:20;4.38;;;1.98;;
21999;SDS011;11164;48.818;2.322;2023-05-07T08:06:46;4.03;;;1.80;;
21999;SDS011;11164;48.818;2.322;2023-05-07T08:09:11;3.00;;;1.75;;
21999;SDS011;11164;48.818;2.322;2023-05-07T08:11:38;4.30;;;1.70;;
21999;SDS011;11164;48.818;2.322;2023-05-07T08:14:03;3.75;;;1.70;;
21999;SDS011;11164;48.818;2.322;2023-05-07T08:16:29;4.88;;;2.15;;
21999;SDS011;11164;48.818;2.322;2023-05-07T08:18:54;3.92;;;1.95;;
21999;SDS011;11164;48.818;2.322;2023-05-07T08:21:20;3.33;;;1.63;;
21999;SDS011;11164;48.818;2.322;2023-05-07T08:23:45;4.53;;;1.83;;
21999;SDS011;11164;48.818;2.322;2023-05-07T08:26:10;6.32;;;2.50;;
21999;SDS011;11164;48.818;2.322;2023-05-07T08:28:36;9.52;;;5.00;;
21999;SDS011;11164;48.818;2.322;2023-05-07T08:31:01;11.90;;;5.50;;
21999;SDS011;11164;48.818;2.322;2023-05-07T08:33:27;8.35;;;4.03;;
21999;SDS011;11164;48.818;2.322;2023-05-07T08:35:52;7.72;;;3.95;;
21999;SDS011;11164;48.818;2.322;2023-05-07T08:38:18;13.73;;;7.70;;
21999;SDS011;11164;48.818;2.322;2023-05-07T08:40:43;7.80;;;3.05;;
21999;SDS011;11164;48.818;2.322;2023-05-07T08:43:12;5.25;;;3.58;;
21999;SDS011;11164;48.818;2.322;2023-05-07T08:45:39;5.65;;;2.50;;
21999;SDS011;11164;48.818;2.322;2023-05-07T08:48:07;3.60;;;1.90;;
21999;SDS011;11164;48.818;2.322;2023-05-07T08:50:35;6.50;;;1.65;;
21999;SDS011;11164;48.818;2.322;2023-05-07T08:53:02;3.38;;;1.52;;
21999;SDS011;11164;48.818;2.322;2023-05-07T08:55:28;3.60;;;1.30;;
21999;SDS011;11164;48.818;2.322;2023-05-07T08:57:54;3.33;;;1.70;;
21999;SDS011;11164;48.818;2.322;2023-05-07T09:00:19;3.55;;;1.83;;
21999;SDS011;11164;48.818;2.322;2023-05-07T09:02:45;3.42;;;1.75;;
21999;SDS011;11164;48.818;2.322;2023-05-07T09:05:10;3.78;;;1.75;;
21999;SDS011;11164;48.818;2.322;2023-05-07T09:07:35;4.57;;;1.50;;
21999;SDS011;11164;48.818;2.322;2023-05-07T09:10:02;3.15;;;1.33;;
21999;SDS011;11164;48.818;2.322;2023-05-07T09:12:29;3.22;;;1.40;;
21999;SDS011;11164;48.818;2.322;2023-05-07T09:14:54;2.83;;;1.27;;
21999;SDS011;11164;48.818;2.322;2023-05-07T09:17:20;6.72;;;2.47;;
21999;SDS011;11164;48.818;2.322;2023-05-07T09:19:45;3.70;;;1.50;;
21999;SDS011;11164;48.818;2.322;2023-05-07T09:22:11;2.97;;;1.70;;
21999;SDS011;11164;48.818;2.322;2023-05-07T09:24:36;4.25;;;2.00;;
21999;SDS011;11164;48.818;2.322;2023-05-07T09:27:03;3.95;;;1.67;;
21999;SDS011;11164;48.818;2.322;2023-05-07T09:29:29;3.05;;;1.85;;
21999;SDS011;11164;48.818;2.322;2023-05-07T09:32:00;4.07;;;2.17;;
21999;SDS011;11164;48.818;2.322;2023-05-07T09:34:25;3.03;;;1.70;;
21999;SDS011;11164;48.818;2.322;2023-05-07T09:36:51;6.22;;;1.90;;
21999;SDS011;11164;48.818;2.322;2023-05-07T09:39:16;3.38;;;1.50;;
21999;SDS011;11164;48.818;2.322;2023-05-07T09:41:46;2.75;;;1.25;;
21999;SDS011;11164;48.818;2.322;2023-05-07T09:44:12;3.60;;;1.73;;
21999;SDS011;11164;48.818;2.322;2023-05-07T09:46:39;4.55;;;2.30;;
21999;SDS011;11164;48.818;2.322;2023-05-07T09:49:07;4.97;;;1.80;;
21999;SDS011;11164;48.818;2.322;2023-05-07T09:54:06;2.92;;;1.60;;
21999;SDS011;11164;48.818;2.322;2023-05-07T09:56:32;3.13;;;1.40;;
21999;SDS011;11164;48.818;2.322;2023-05-07T09:58:59;4.68;;;1.40;;
21999;SDS011;11164;48.818;2.322;2023-05-07T10:01:26;3.45;;;1.63;;
21999;SDS011;11164;48.818;2.322;2023-05-07T10:03:52;3.25;;;1.52;;
21999;SDS011;11164;48.818;2.322;2023-05-07T10:06:19;4.75;;;1.50;;
21999;SDS011;11164;48.818;2.322;2023-05-07T10:08:45;3.13;;;1.17;;
21999;SDS011;11164;48.818;2.322;2023-05-07T10:11:11;3.03;;;1.60;;
21999;SDS011;11164;48.818;2.322;2023-05-07T10:13:37;5.38;;;1.70;;
21999;SDS011;11164;48.818;2.322;2023-05-07T10:16:05;3.28;;;1.30;;
21999;SDS011;11164;48.818;2.322;2023-05-07T10:18:31;3.17;;;1.42;;
21999;SDS011;11164;48.818;2.322;2023-05-07T10:23:32;3.03;;;1.45;;
21999;SDS011;11164;48.818;2.322;2023-05-07T10:25:59;4.43;;;1.50;;
21999;SDS011;11164;48.818;2.322;2023-05-07T10:28:28;2.92;;;1.40;;
21999;SDS011;11164;48.818;2.322;2023-05-07T10:31:00;2.80;;;1.20;;
21999;SDS011;11164;48.818;2.322;2023-05-07T10:33:29;3.42;;;1.25;;
21999;SDS011;11164;48.818;2.322;2023-05-07T10:35:58;3.40;;;1.30;;
21999;SDS011;11164;48.818;2.322;2023-05-07T10:38:26;3.28;;;1.55;;
21999;SDS011;11164;48.818;2.322;2023-05-07T10:40:52;4.47;;;1.50;;
21999;SDS011;11164;48.818;2.322;2023-05-07T10:43:18;3.50;;;1.60;;
21999;SDS011;11164;48.818;2.322;2023-05-07T10:45:43;4.70;;;1.60;;
21999;SDS011;11164;48.818;2.322;2023-05-07T10:50:35;5.90;;;2.53;;
21999;SDS011;11164;48.818;2.322;2023-05-07T10:55:46;3.85;;;1.55;;
21999;SDS011;11164;48.818;2.322;2023-05-07T11:00:46;5.07;;;2.00;;
21999;SDS011;11164;48.818;2.322;2023-05-07T11:03:12;3.53;;;1.98;;
21999;SDS011;11164;48.818;2.322;2023-05-07T11:05:39;5.03;;;3.17;;
21999;SDS011;11164;48.818;2.322;2023-05-07T11:08:05;6.13;;;3.13;;
21999;SDS011;11164;48.818;2.322;2023-05-07T11:10:50;4.03;;;1.95;;
21999;SDS011;11164;48.818;2.322;2023-05-07T11:13:17;4.07;;;1.75;;
21999;SDS011;11164;48.818;2.322;2023-05-07T11:15:47;5.40;;;2.40;;
21999;SDS011;11164;48.818;2.322;2023-05-07T11:18:16;3.67;;;1.98;;
21999;SDS011;11164;48.818;2.322;2023-05-07T11:20:49;5.70;;;2.05;;
21999;SDS011;11164;48.818;2.322;2023-05-07T11:26:02;5.43;;;2.30;;
21999;SDS011;11164;48.818;2.322;2023-05-07T11:28:31;3.75;;;2.17;;
21999;SDS011;11164;48.818;2.322;2023-05-07T11:31:02;4.43;;;2.78;;
21999;SDS011;11164;48.818;2.322;2023-05-07T11:33:27;5.65;;;3.42;;
21999;SDS011;11164;48.818;2.322;2023-05-07T11:35:54;5.40;;;3.08;;
21999;SDS011;11164;48.818;2.322;2023-05-07T11:38:19;4.97;;;2.80;;
21999;SDS011;11164;48.818;2.322;2023-05-07T11:43:36;6.28;;;3.53;;
21999;SDS011;11164;48.818;2.322;2023-05-07T11:46:08;5.22;;;3.40;;
21999;SDS011;11164;48.818;2.322;2023-05-07T11:48:35;5.72;;;3.83;;
21999;SDS011;11164;48.818;2.322;2023-05-07T11:51:01;5.70;;;3.42;;
21999;SDS011;11164;48.818;2.322;2023-05-07T11:53:35;10.32;;;4.80;;
21999;SDS011;11164;48.818;2.322;2023-05-07T11:56:06;6.10;;;4.15;;
21999;SDS011;11164;48.818;2.322;2023-05-07T11:58:32;6.97;;;4.15;;
21999;SDS011;11164;48.818;2.322;2023-05-07T12:00:57;5.80;;;4.07;;
21999;SDS011;11164;48.818;2.322;2023-05-07T12:03:23;7.47;;;3.60;;
21999;SDS011;11164;48.818;2.322;2023-05-07T12:05:48;6.13;;;3.83;;
21999;SDS011;11164;48.818;2.322;2023-05-07T12:08:14;5.43;;;3.60;;
21999;SDS011;11164;48.818;2.322;2023-05-07T12:10:41;5.57;;;3.63;;
21999;SDS011;11164;48.818;2.322;2023-05-07T12:13:28;6.03;;;3.28;;
21999;SDS011;11164;48.818;2.322;2023-05-07T12:15:52;5.88;;;3.50;;
21999;SDS011;11164;48.818;2.322;2023-05-07T12:18:20;4.22;;;3.20;;
21999;SDS011;11164;48.818;2.322;2023-05-07T12:20:46;4.55;;;2.75;;
21999;SDS011;11164;48.818;2.322;2023-05-07T12:23:12;3.95;;;2.80;;
21999;SDS011;11164;48.818;2.322;2023-05-07T12:25:38;5.78;;;2.70;;
21999;SDS011;11164;48.818;2.322;2023-05-07T12:28:05;5.88;;;3.08;;
21999;SDS011;11164;48.818;2.322;2023-05-07T12:30:36;4.03;;;2.80;;
21999;SDS011;11164;48.818;2.322;2023-05-07T12:33:02;5.20;;;2.67;;
21999;SDS011;11164;48.818;2.322;2023-05-07T12:35:28;5.50;;;2.90;;
21999;SDS011;11164;48.818;2.322;2023-05-07T12:37:55;5.63;;;3.35;;
21999;SDS011;11164;48.818;2.322;2023-05-07T12:40:21;5.13;;;3.05;;
21999;SDS011;11164;48.818;2.322;2023-05-07T12:42:47;6.05;;;3.40;;
21999;SDS011;11164;48.818;2.322;2023-05-07T12:45:18;5.72;;;4.05;;
21999;SDS011;11164;48.818;2.322;2023-05-07T12:47:44;6.60;;;3.78;;
21999;SDS011;11164;48.818;2.322;2023-05-07T12:50:10;8.35;;;4.10;;
21999;SDS011;11164;48.818;2.322;2023-05-07T12:52:36;9.40;;;4.75;;
21999;SDS011;11164;48.818;2.322;2023-05-07T12:55:05;8.23;;;4.60;;
21999;SDS011;11164;48.818;2.322;2023-05-07T12:57:39;5.60;;;3.67;;
21999;SDS011;11164;48.818;2.322;2023-05-07T13:00:05;6.90;;;3.85;;
21999;SDS011;11164;48.818;2.322;2023-05-07T13:02:32;6.00;;;3.50;;
21999;SDS011;11164;48.818;2.322;2023-05-07T13:04:59;6.00;;;4.25;;
21999;SDS011;11164;48.818;2.322;2023-05-07T13:07:25;6.82;;;4.47;;
21999;SDS011;11164;48.818;2.322;2023-05-07T13:09:50;8.30;;;4.65;;
21999;SDS011;11164;48.818;2.322;2023-05-07T13:12:16;6.05;;;3.90;;
21999;SDS011;11164;48.818;2.322;2023-05-07T13:14:41;5.63;;;3.50;;
21999;SDS011;11164;48.818;2.322;2023-05-07T13:17:06;6.82;;;4.10;;
21999;SDS011;11164;48.818;2.322;2023-05-07T13:19:32;8.57;;;4.03;;
21999;SDS011;11164;48.818;2.322;2023-05-07T13:21:57;8.13;;;4.35;;
21999;SDS011;11164;48.818;2.322;2023-05-07T13:24:24;6.32;;;4.45;;
21999;SDS011;11164;48.818;2.322;2023-05-07T13:26:50;6.53;;;3.83;;
21999;SDS011;11164;48.818;2.322;2023-05-07T13:29:16;7.07;;;4.90;;
21999;SDS011;11164;48.818;2.322;2023-05-07T13:31:41;10.25;;;5.97;;
21999;SDS011;11164;48.818;2.322;2023-05-07T13:34:08;8.40;;;5.57;;
21999;SDS011;11164;48.818;2.322;2023-05-07T13:36:34;12.18;;;7.95;;
21999;SDS011;11164;48.818;2.322;2023-05-07T13:39:03;10.48;;;6.90;;
21999;SDS011;11164;48.818;2.322;2023-05-07T13:41:28;9.57;;;6.47;;
21999;SDS011;11164;48.818;2.322;2023-05-07T13:43:54;9.60;;;6.00;;
21999;SDS011;11164;48.818;2.322;2023-05-07T13:46:19;8.27;;;5.55;;
21999;SDS011;11164;48.818;2.322;2023-05-07T13:48:45;7.03;;;4.65;;
21999;SDS011;11164;48.818;2.322;2023-05-07T13:51:10;8.75;;;4.38;;
21999;SDS011;11164;48.818;2.322;2023-05-07T13:53:36;6.47;;;4.15;;
21999;SDS011;11164;48.818;2.322;2023-05-07T13:56:02;6.88;;;4.57;;
21999;SDS011;11164;48.818;2.322;2023-05-07T13:58:29;5.68;;;4.10;;
21999;SDS011;11164;48.818;2.322;2023-05-07T14:00:55;5.65;;;4.35;;
21999;SDS011;11164;48.818;2.322;2023-05-07T14:03:20;7.53;;;4.03;;
21999;SDS011;11164;48.818;2.322;2023-05-07T14:05:45;5.72;;;3.90;;
21999;SDS011;11164;48.818;2.322;2023-05-07T14:08:11;7.03;;;4.55;;
21999;SDS011;11164;48.818;2.322;2023-05-07T14:10:38;6.32;;;4.30;;
21999;SDS011;11164;48.818;2.322;2023-05-07T14:13:04;6.25;;;4.25;;
21999;SDS011;11164;48.818;2.322;2023-05-07T14:15:30;6.40;;;3.85;;
21999;SDS011;11164;48.818;2.322;2023-05-07T14:17:57;6.63;;;4.18;;
21999;SDS011;11164;48.818;2.322;2023-05-07T14:20:24;6.40;;;4.28;;
21999;SDS011;11164;48.818;2.322;2023-05-07T14:22:49;6.63;;;4.75;;
21999;SDS011;11164;48.818;2.322;2023-05-07T14:25:15;9.90;;;4.97;;
21999;SDS011;11164;48.818;2.322;2023-05-07T14:27:40;6.90;;;4.90;;
21999;SDS011;11164;48.818;2.322;2023-05-07T14:30:07;6.53;;;4.70;;
21999;SDS011;11164;48.818;2.322;2023-05-07T14:32:33;7.10;;;4.88;;
21999;SDS011;11164;48.818;2.322;2023-05-07T14:34:59;7.07;;;4.40;;
21999;SDS011;11164;48.818;2.322;2023-05-07T14:37:24;7.30;;;5.18;;
21999;SDS011;11164;48.818;2.322;2023-05-07T14:39:50;7.13;;;4.90;;
21999;SDS011;11164;48.818;2.322;2023-05-07T14:42:15;7.97;;;5.57;;
21999;SDS011;11164;48.818;2.322;2023-05-07T14:44:41;8.65;;;5.05;;
21999;SDS011;11164;48.818;2.322;2023-05-07T14:47:07;8.52;;;4.97;;
21999;SDS011;11164;48.818;2.322;2023-05-07T14:49:33;6.72;;;4.60;;
21999;SDS011;11164;48.818;2.322;2023-05-07T14:51:59;5.35;;;4.03;;
21999;SDS011;11164;48.818;2.322;2023-05-07T14:54:26;6.18;;;3.70;;
21999;SDS011;11164;48.818;2.322;2023-05-07T14:56:52;5.72;;;3.78;;
21999;SDS011;11164;48.818;2.322;2023-05-07T14:59:18;6.20;;;3.85;;